RYR86DA EBCI-LFMU
Flight info
| Callsign | RYR86DA |
|---|---|
| Flight time | 1h 13m |
| Altitude | 19000 |
| Route | CIV Y50 IDOKO/N0332F170 Y50 MATIX/N0341F190 Y50 REM B3 VATRI G40 TRO B373 MOU A27 MINPA/N0336F180 A27 MOKDI/N0341F190 A27 MEN J27 AFRIC |
| Aircraft | B38M/M-SADE3FGILRWY/SB1 |
Departure
| Time | 2026-04-21 12:52 |
|---|---|
| Airport | Brussels South Charleroi Airport (EBCI) |
Arrival
| Time | 2026-04-21 14:05 |
|---|---|
| Airport | Béziers Vias airport (LFMU) |
| Time | Latitude | Longitude | Altitude | Speed | Heading |
|---|---|---|---|---|---|
| 2026-04-21 12:23 | 50.46805 | 4.46874 | 582 ft | 0 kts | 335° |
| 2026-04-21 12:29 | 50.46792 | 4.46817 | 585 ft | 0 kts | 335° |
| 2026-04-21 12:43 | 50.46790 | 4.46818 | 585 ft | 2 kts | 335° |
| 2026-04-21 12:43 | 50.46766 | 4.46835 | 584 ft | 4 kts | 335° |
| 2026-04-21 12:44 | 50.46747 | 4.46854 | 585 ft | 4 kts | 294° |
| 2026-04-21 12:44 | 50.46748 | 4.46889 | 584 ft | 3 kts | 246° |
| 2026-04-21 12:44 | 50.46757 | 4.46919 | 587 ft | 4 kts | 245° |
| 2026-04-21 12:44 | 50.46760 | 4.46930 | 585 ft | 1 kts | 245° |
| 2026-04-21 12:46 | 50.46755 | 4.46913 | 584 ft | 6 kts | 245° |
| 2026-04-21 12:47 | 50.46727 | 4.46817 | 588 ft | 12 kts | 243° |
| 2026-04-21 12:47 | 50.46667 | 4.46753 | 586 ft | 9 kts | 233° |
| 2026-04-21 12:47 | 50.46636 | 4.46653 | 585 ft | 13 kts | 245° |
| 2026-04-21 12:47 | 50.46565 | 4.46559 | 587 ft | 15 kts | 184° |
| 2026-04-21 12:48 | 50.46501 | 4.46440 | 587 ft | 16 kts | 246° |
| 2026-04-21 12:48 | 50.46453 | 4.46271 | 588 ft | 17 kts | 243° |
| 2026-04-21 12:48 | 50.46402 | 4.46110 | 593 ft | 15 kts | 246° |
| 2026-04-21 12:48 | 50.46367 | 4.45985 | 601 ft | 10 kts | 246° |
| 2026-04-21 12:49 | 50.46339 | 4.45885 | 607 ft | 12 kts | 246° |
| 2026-04-21 12:49 | 50.46292 | 4.45722 | 624 ft | 21 kts | 245° |
| 2026-04-21 12:49 | 50.46223 | 4.45485 | 622 ft | 26 kts | 245° |
| 2026-04-21 12:49 | 50.46146 | 4.45218 | 629 ft | 27 kts | 246° |
| 2026-04-21 12:50 | 50.46064 | 4.44934 | 633 ft | 29 kts | 245° |
| 2026-04-21 12:50 | 50.45975 | 4.44635 | 629 ft | 31 kts | 245° |
| 2026-04-21 12:50 | 50.45865 | 4.44341 | 634 ft | 32 kts | 232° |
| 2026-04-21 12:50 | 50.45744 | 4.44096 | 615 ft | 22 kts | 232° |
| 2026-04-21 12:51 | 50.45657 | 4.43983 | 623 ft | 11 kts | 171° |
| 2026-04-21 12:51 | 50.45640 | 4.44099 | 626 ft | 21 kts | 66° |
| 2026-04-21 12:51 | 50.45806 | 4.44666 | 633 ft | 92 kts | 65° |
| 2026-04-21 12:51 | 50.46163 | 4.45881 | 673 ft | 145 kts | 64° |
| 2026-04-21 12:52 | 50.46595 | 4.47340 | 1387 ft | 149 kts | 66° |
| 2026-04-21 12:52 | 50.47102 | 4.48744 | 2311 ft | 147 kts | 58° |
| 2026-04-21 12:52 | 50.47700 | 4.50059 | 3126 ft | 151 kts | 56° |
| 2026-04-21 12:52 | 50.48378 | 4.51367 | 3770 ft | 159 kts | 51° |
| 2026-04-21 12:53 | 50.49149 | 4.52732 | 4094 ft | 182 kts | 51° |
| 2026-04-21 12:53 | 50.50054 | 4.54302 | 4464 ft | 206 kts | 49° |
| 2026-04-21 12:53 | 50.51079 | 4.56050 | 4832 ft | 228 kts | 49° |
| 2026-04-21 12:53 | 50.52207 | 4.57952 | 5281 ft | 247 kts | 49° |
| 2026-04-21 12:54 | 50.53534 | 4.59720 | 6011 ft | 253 kts | 32° |
| 2026-04-21 12:54 | 50.55248 | 4.60477 | 6779 ft | 265 kts | 1° |
| 2026-04-21 12:54 | 50.57039 | 4.59655 | 7522 ft | 278 kts | 331° |
| 2026-04-21 12:54 | 50.58375 | 4.57420 | 8268 ft | 289 kts | 299° |
| 2026-04-21 12:55 | 50.58815 | 4.54323 | 9009 ft | 296 kts | 269° |
| 2026-04-21 12:55 | 50.58691 | 4.51061 | 9711 ft | 301 kts | 268° |
| 2026-04-21 12:55 | 50.58616 | 4.47747 | 10428 ft | 305 kts | 269° |
| 2026-04-21 12:55 | 50.58558 | 4.44368 | 10777 ft | 322 kts | 270° |
| 2026-04-21 12:56 | 50.58522 | 4.40768 | 11163 ft | 336 kts | 270° |
| 2026-04-21 12:56 | 50.58477 | 4.37074 | 11866 ft | 338 kts | 270° |
| 2026-04-21 12:56 | 50.58419 | 4.33347 | 12600 ft | 342 kts | 270° |
| 2026-04-21 12:56 | 50.58354 | 4.29590 | 13384 ft | 346 kts | 270° |
| 2026-04-21 12:57 | 50.58285 | 4.25787 | 14152 ft | 349 kts | 270° |
| 2026-04-21 12:57 | 50.58212 | 4.21952 | 14887 ft | 352 kts | 270° |
| 2026-04-21 12:57 | 50.58138 | 4.18090 | 15628 ft | 355 kts | 270° |
| 2026-04-21 12:57 | 50.58060 | 4.14201 | 16379 ft | 358 kts | 270° |
| 2026-04-21 12:58 | 50.57982 | 4.10318 | 17061 ft | 361 kts | 270° |
| 2026-04-21 12:58 | 50.57900 | 4.06349 | 17765 ft | 365 kts | 270° |
| 2026-04-21 12:58 | 50.57816 | 4.02348 | 18482 ft | 367 kts | 270° |
| 2026-04-21 12:58 | 50.57729 | 3.98318 | 19107 ft | 370 kts | 270° |
| 2026-04-21 12:59 | 50.57405 | 3.94306 | 19732 ft | 373 kts | 255° |
| 2026-04-21 12:59 | 50.56275 | 3.90617 | 20295 ft | 380 kts | 235° |
| 2026-04-21 12:59 | 50.54393 | 3.87673 | 20813 ft | 387 kts | 215° |
| 2026-04-21 12:59 | 50.51988 | 3.85812 | 21428 ft | 387 kts | 197° |
| 2026-04-21 13:00 | 50.49328 | 3.85123 | 21958 ft | 390 kts | 180° |
| 2026-04-21 13:00 | 50.46644 | 3.85350 | 22447 ft | 394 kts | 175° |
| 2026-04-21 13:00 | 50.43898 | 3.85714 | 22965 ft | 398 kts | 174° |
| 2026-04-21 13:00 | 50.41126 | 3.86133 | 23412 ft | 403 kts | 174° |
| 2026-04-21 13:01 | 50.38333 | 3.86582 | 24028 ft | 403 kts | 174° |
| 2026-04-21 13:01 | 50.35528 | 3.87049 | 24425 ft | 408 kts | 174° |
| 2026-04-21 13:01 | 50.32707 | 3.87526 | 24929 ft | 409 kts | 174° |
| 2026-04-21 13:01 | 50.29863 | 3.88010 | 25283 ft | 414 kts | 175° |
| 2026-04-21 13:02 | 50.26986 | 3.88501 | 25721 ft | 417 kts | 175° |
| 2026-04-21 13:02 | 50.24131 | 3.88987 | 26123 ft | 421 kts | 175° |
| 2026-04-21 13:02 | 50.18256 | 3.89986 | 26906 ft | 428 kts | 176° |
| 2026-04-21 13:03 | 50.15277 | 3.90492 | 27286 ft | 432 kts | 176° |
| 2026-04-21 13:03 | 50.12278 | 3.91001 | 27664 ft | 436 kts | 176° |
| 2026-04-21 13:03 | 50.09245 | 3.91514 | 27943 ft | 442 kts | 177° |
| 2026-04-21 13:03 | 50.06168 | 3.92036 | 28264 ft | 446 kts | 178° |
| 2026-04-21 13:04 | 50.03074 | 3.92558 | 28647 ft | 449 kts | 178° |
| 2026-04-21 13:04 | 49.99947 | 3.93086 | 28964 ft | 454 kts | 178° |
| 2026-04-21 13:04 | 49.96842 | 3.93610 | 29321 ft | 457 kts | 178° |
| 2026-04-21 13:04 | 49.93672 | 3.94144 | 29663 ft | 461 kts | 179° |
| 2026-04-21 13:05 | 49.90470 | 3.94682 | 30013 ft | 464 kts | 179° |
| 2026-04-21 13:05 | 49.87246 | 3.95223 | 30270 ft | 469 kts | 179° |
| 2026-04-21 13:05 | 49.83987 | 3.95771 | 30522 ft | 472 kts | 179° |
| 2026-04-21 13:05 | 49.80716 | 3.96320 | 30868 ft | 474 kts | 179° |
| 2026-04-21 13:06 | 49.77435 | 3.96871 | 31192 ft | 475 kts | 179° |
| 2026-04-21 13:06 | 49.74183 | 3.97416 | 31511 ft | 477 kts | 179° |
| 2026-04-21 13:06 | 49.70880 | 3.97968 | 31831 ft | 478 kts | 179° |
| 2026-04-21 13:06 | 49.67567 | 3.98521 | 32118 ft | 480 kts | 179° |
| 2026-04-21 13:07 | 49.64243 | 3.99074 | 32417 ft | 482 kts | 179° |
| 2026-04-21 13:07 | 49.60897 | 3.99632 | 32674 ft | 484 kts | 179° |
| 2026-04-21 13:07 | 49.57541 | 4.00191 | 32994 ft | 486 kts | 179° |
| 2026-04-21 13:07 | 49.54178 | 4.00749 | 33301 ft | 487 kts | 179° |
| 2026-04-21 13:08 | 49.50811 | 4.01307 | 33685 ft | 486 kts | 179° |
| 2026-04-21 13:08 | 49.47454 | 4.01862 | 34125 ft | 484 kts | 179° |
| 2026-04-21 13:08 | 49.44108 | 4.02415 | 34469 ft | 483 kts | 179° |
| 2026-04-21 13:08 | 49.40813 | 4.02959 | 34753 ft | 483 kts | 179° |
| 2026-04-21 13:09 | 49.37475 | 4.03507 | 35061 ft | 482 kts | 179° |
| 2026-04-21 13:09 | 49.34129 | 4.04053 | 35198 ft | 485 kts | 179° |
| 2026-04-21 13:09 | 49.27353 | 4.04509 | 35191 ft | 491 kts | 184° |
| 2026-04-21 13:10 | 49.20445 | 4.04701 | 35161 ft | 501 kts | 184° |
| 2026-04-21 13:10 | 49.13482 | 4.04940 | 35180 ft | 506 kts | 185° |
| 2026-04-21 13:11 | 49.06413 | 4.05120 | 35171 ft | 510 kts | 184° |
| 2026-04-21 13:11 | 48.99295 | 4.05307 | 35152 ft | 512 kts | 185° |
| 2026-04-21 13:12 | 48.92198 | 4.05497 | 35158 ft | 498 kts | 185° |
| 2026-04-21 13:12 | 48.88797 | 4.05588 | 35165 ft | 482 kts | 185° |
| 2026-04-21 13:12 | 48.85465 | 4.05673 | 35163 ft | 477 kts | 185° |
| 2026-04-21 13:13 | 48.78893 | 4.05828 | 35156 ft | 475 kts | 186° |
| 2026-04-21 13:13 | 48.72279 | 4.05922 | 35161 ft | 475 kts | 186° |
| 2026-04-21 13:14 | 48.65670 | 4.06022 | 35150 ft | 475 kts | 186° |
| 2026-04-21 13:14 | 48.59062 | 4.06122 | 35144 ft | 474 kts | 186° |
| 2026-04-21 13:15 | 48.52643 | 4.05042 | 35153 ft | 460 kts | 199° |
| 2026-04-21 13:15 | 48.46364 | 4.03072 | 35130 ft | 461 kts | 199° |
| 2026-04-21 13:16 | 48.40126 | 4.01086 | 35128 ft | 461 kts | 199° |
| 2026-04-21 13:16 | 48.33856 | 3.99089 | 35118 ft | 460 kts | 199° |
| 2026-04-21 13:17 | 48.27601 | 3.97100 | 35124 ft | 459 kts | 198° |
| 2026-04-21 13:17 | 48.21267 | 3.95559 | 35141 ft | 463 kts | 194° |
| 2026-04-21 13:18 | 48.14943 | 3.94159 | 35105 ft | 462 kts | 195° |
| 2026-04-21 13:18 | 48.08600 | 3.92731 | 35123 ft | 461 kts | 195° |
| 2026-04-21 13:19 | 48.02260 | 3.91314 | 35109 ft | 461 kts | 194° |
| 2026-04-21 13:19 | 47.95917 | 3.89938 | 35106 ft | 461 kts | 194° |
| 2026-04-21 13:20 | 47.89629 | 3.88574 | 35103 ft | 458 kts | 194° |
| 2026-04-21 13:20 | 47.83333 | 3.87211 | 35094 ft | 457 kts | 194° |
| 2026-04-21 13:21 | 47.77038 | 3.85852 | 35094 ft | 457 kts | 194° |
| 2026-04-21 13:21 | 47.70744 | 3.84496 | 35086 ft | 456 kts | 194° |
| 2026-04-21 13:22 | 47.64484 | 3.83151 | 35087 ft | 454 kts | 194° |
| 2026-04-21 13:22 | 47.58267 | 3.81818 | 35089 ft | 454 kts | 194° |
| 2026-04-21 13:23 | 47.52011 | 3.80467 | 35062 ft | 454 kts | 195° |
| 2026-04-21 13:23 | 47.45780 | 3.79122 | 35078 ft | 451 kts | 195° |
| 2026-04-21 13:24 | 47.39562 | 3.77784 | 35069 ft | 451 kts | 194° |
| 2026-04-21 13:24 | 47.33391 | 3.76459 | 35072 ft | 451 kts | 195° |
| 2026-04-21 13:25 | 47.27175 | 3.75127 | 35067 ft | 451 kts | 195° |
| 2026-04-21 13:25 | 47.20953 | 3.73798 | 35064 ft | 451 kts | 195° |
| 2026-04-21 13:26 | 47.14742 | 3.72474 | 35060 ft | 451 kts | 195° |
| 2026-04-21 13:26 | 47.08571 | 3.71161 | 35053 ft | 451 kts | 195° |
| 2026-04-21 13:27 | 47.02358 | 3.69842 | 35054 ft | 451 kts | 195° |
| 2026-04-21 13:27 | 46.96140 | 3.68526 | 35048 ft | 451 kts | 195° |
| 2026-04-21 13:28 | 46.89925 | 3.67213 | 35024 ft | 451 kts | 195° |
| 2026-04-21 13:28 | 46.83713 | 3.65904 | 35047 ft | 451 kts | 195° |
| 2026-04-21 13:29 | 46.77545 | 3.64607 | 35048 ft | 451 kts | 195° |
| 2026-04-21 13:29 | 46.71338 | 3.63291 | 35043 ft | 449 kts | 197° |
| 2026-04-21 13:30 | 46.68378 | 3.62058 | 35056 ft | 438 kts | 207° |
| 2026-04-21 13:30 | 46.65476 | 3.60623 | 35031 ft | 442 kts | 205° |
| 2026-04-21 13:30 | 46.59646 | 3.57810 | 35047 ft | 442 kts | 205° |
| 2026-04-21 13:31 | 46.53855 | 3.55009 | 35036 ft | 442 kts | 205° |
| 2026-04-21 13:31 | 46.48025 | 3.52194 | 35024 ft | 441 kts | 205° |
| 2026-04-21 13:32 | 46.42199 | 3.49387 | 35038 ft | 441 kts | 205° |
| 2026-04-21 13:32 | 46.36369 | 3.46585 | 35021 ft | 441 kts | 205° |
| 2026-04-21 13:33 | 46.30586 | 3.43810 | 35005 ft | 441 kts | 205° |
| 2026-04-21 13:33 | 46.24762 | 3.41024 | 35021 ft | 441 kts | 205° |
| 2026-04-21 13:34 | 46.18935 | 3.38241 | 35024 ft | 441 kts | 205° |
| 2026-04-21 13:34 | 46.13103 | 3.35463 | 35024 ft | 441 kts | 205° |
| 2026-04-21 13:35 | 46.07271 | 3.32691 | 35021 ft | 441 kts | 205° |
| 2026-04-21 13:35 | 46.01483 | 3.29945 | 35023 ft | 441 kts | 205° |
| 2026-04-21 13:36 | 45.95653 | 3.27186 | 35017 ft | 441 kts | 205° |
| 2026-04-21 13:36 | 45.89823 | 3.24433 | 35013 ft | 441 kts | 205° |
| 2026-04-21 13:37 | 45.83993 | 3.21686 | 35023 ft | 441 kts | 205° |
| 2026-04-21 13:37 | 45.78065 | 3.19315 | 34999 ft | 452 kts | 191° |
| 2026-04-21 13:38 | 45.71764 | 3.19079 | 34970 ft | 457 kts | 188° |
| 2026-04-21 13:38 | 45.65413 | 3.18880 | 35009 ft | 457 kts | 187° |
| 2026-04-21 13:39 | 45.59068 | 3.18714 | 34993 ft | 456 kts | 187° |
| 2026-04-21 13:39 | 45.52719 | 3.18552 | 34981 ft | 456 kts | 187° |
| 2026-04-21 13:40 | 45.46414 | 3.18391 | 34988 ft | 456 kts | 187° |
| 2026-04-21 13:40 | 45.40067 | 3.18230 | 34987 ft | 456 kts | 187° |
| 2026-04-21 13:41 | 45.33720 | 3.18068 | 34960 ft | 456 kts | 187° |
| 2026-04-21 13:41 | 45.27385 | 3.17908 | 34982 ft | 455 kts | 187° |
| 2026-04-21 13:42 | 45.21057 | 3.17748 | 34968 ft | 455 kts | 187° |
| 2026-04-21 13:42 | 45.14738 | 3.17588 | 34169 ft | 462 kts | 187° |
| 2026-04-21 13:43 | 45.11501 | 3.17505 | 33184 ft | 468 kts | 188° |
| 2026-04-21 13:43 | 45.08244 | 3.17339 | 32333 ft | 469 kts | 188° |
| 2026-04-21 13:43 | 45.04988 | 3.17169 | 31661 ft | 468 kts | 187° |
| 2026-04-21 13:43 | 45.01748 | 3.17006 | 31042 ft | 465 kts | 187° |
| 2026-04-21 13:44 | 44.98516 | 3.16844 | 30332 ft | 464 kts | 187° |
| 2026-04-21 13:44 | 44.95282 | 3.16729 | 29327 ft | 467 kts | 185° |
| 2026-04-21 13:44 | 44.92060 | 3.16698 | 28485 ft | 468 kts | 185° |
| 2026-04-21 13:44 | 44.88799 | 3.16656 | 28064 ft | 469 kts | 185° |
| 2026-04-21 13:45 | 44.85542 | 3.16609 | 27483 ft | 466 kts | 185° |
| 2026-04-21 13:45 | 44.82314 | 3.16560 | 26869 ft | 461 kts | 185° |
| 2026-04-21 13:45 | 44.79122 | 3.16513 | 26268 ft | 457 kts | 185° |
| 2026-04-21 13:45 | 44.75961 | 3.16465 | 25676 ft | 452 kts | 185° |
| 2026-04-21 13:46 | 44.72829 | 3.16418 | 25092 ft | 448 kts | 185° |
| 2026-04-21 13:46 | 44.69732 | 3.16372 | 24516 ft | 443 kts | 185° |
| 2026-04-21 13:46 | 44.66705 | 3.16326 | 23950 ft | 439 kts | 185° |
| 2026-04-21 13:46 | 44.63663 | 3.16281 | 23350 ft | 435 kts | 185° |
| 2026-04-21 13:47 | 44.60669 | 3.16084 | 22633 ft | 427 kts | 194° |
| 2026-04-21 13:47 | 44.57807 | 3.15114 | 22013 ft | 421 kts | 198° |
| 2026-04-21 13:47 | 44.54980 | 3.14133 | 21550 ft | 415 kts | 198° |
| 2026-04-21 13:47 | 44.52188 | 3.13151 | 21017 ft | 413 kts | 198° |
| 2026-04-21 13:48 | 44.49417 | 3.12167 | 20486 ft | 410 kts | 198° |
| 2026-04-21 13:48 | 44.46699 | 3.11201 | 19960 ft | 406 kts | 198° |
| 2026-04-21 13:48 | 44.43970 | 3.10232 | 19426 ft | 404 kts | 198° |
| 2026-04-21 13:48 | 44.41257 | 3.09268 | 18925 ft | 402 kts | 198° |
| 2026-04-21 13:49 | 44.38554 | 3.08309 | 18420 ft | 400 kts | 198° |
| 2026-04-21 13:49 | 44.35858 | 3.07355 | 17871 ft | 398 kts | 198° |
| 2026-04-21 13:49 | 44.33181 | 3.06406 | 17363 ft | 396 kts | 198° |
| 2026-04-21 13:49 | 44.30520 | 3.05464 | 16865 ft | 393 kts | 198° |
| 2026-04-21 13:50 | 44.27878 | 3.04531 | 16386 ft | 390 kts | 198° |
| 2026-04-21 13:50 | 44.25259 | 3.03606 | 15915 ft | 387 kts | 198° |
| 2026-04-21 13:50 | 44.22656 | 3.02687 | 15437 ft | 385 kts | 198° |
| 2026-04-21 13:50 | 44.20095 | 3.01784 | 14980 ft | 383 kts | 198° |
| 2026-04-21 13:51 | 44.17521 | 3.00878 | 14517 ft | 381 kts | 198° |
| 2026-04-21 13:51 | 44.14960 | 2.99977 | 14077 ft | 378 kts | 198° |
| 2026-04-21 13:51 | 44.12412 | 2.99081 | 13614 ft | 377 kts | 198° |
| 2026-04-21 13:51 | 44.09876 | 2.98195 | 13068 ft | 375 kts | 198° |
| 2026-04-21 13:52 | 44.07352 | 2.97315 | 12603 ft | 372 kts | 198° |
| 2026-04-21 13:52 | 44.04858 | 2.96444 | 12211 ft | 368 kts | 198° |
| 2026-04-21 13:52 | 44.02386 | 2.95582 | 11773 ft | 365 kts | 198° |
| 2026-04-21 13:52 | 43.99932 | 2.94727 | 11347 ft | 362 kts | 197° |
| 2026-04-21 13:53 | 43.97531 | 2.93892 | 11004 ft | 358 kts | 197° |
| 2026-04-21 13:53 | 43.95148 | 2.93061 | 10832 ft | 347 kts | 197° |
| 2026-04-21 13:53 | 43.92837 | 2.92260 | 10694 ft | 337 kts | 197° |
| 2026-04-21 13:53 | 43.90591 | 2.91479 | 10528 ft | 329 kts | 197° |
| 2026-04-21 13:54 | 43.88399 | 2.90718 | 10363 ft | 321 kts | 198° |
| 2026-04-21 13:54 | 43.86266 | 2.89979 | 10202 ft | 312 kts | 198° |
| 2026-04-21 13:54 | 43.84188 | 2.89259 | 10068 ft | 304 kts | 198° |
| 2026-04-21 13:54 | 43.82157 | 2.88556 | 9868 ft | 300 kts | 198° |
| 2026-04-21 13:55 | 43.80132 | 2.87855 | 9537 ft | 299 kts | 198° |
| 2026-04-21 13:55 | 43.78092 | 2.87474 | 9152 ft | 305 kts | 178° |
| 2026-04-21 13:55 | 43.76052 | 2.88263 | 8784 ft | 309 kts | 153° |
| 2026-04-21 13:55 | 43.74257 | 2.89886 | 8533 ft | 307 kts | 148° |
| 2026-04-21 13:56 | 43.72484 | 2.91531 | 8238 ft | 307 kts | 148° |
| 2026-04-21 13:56 | 43.70712 | 2.93175 | 7900 ft | 306 kts | 147° |
| 2026-04-21 13:56 | 43.68957 | 2.94808 | 7607 ft | 303 kts | 147° |
| 2026-04-21 13:56 | 43.67217 | 2.96427 | 7268 ft | 299 kts | 147° |
| 2026-04-21 13:57 | 43.65505 | 2.98018 | 7007 ft | 295 kts | 147° |
| 2026-04-21 13:57 | 43.63835 | 2.99570 | 6684 ft | 293 kts | 147° |
| 2026-04-21 13:57 | 43.62149 | 3.01135 | 6399 ft | 292 kts | 147° |
| 2026-04-21 13:57 | 43.60469 | 3.02696 | 6129 ft | 291 kts | 147° |
| 2026-04-21 13:58 | 43.58788 | 3.04255 | 5813 ft | 291 kts | 147° |
| 2026-04-21 13:58 | 43.57111 | 3.05809 | 5484 ft | 291 kts | 147° |
| 2026-04-21 13:58 | 43.55432 | 3.07363 | 5155 ft | 291 kts | 147° |
| 2026-04-21 13:58 | 43.53753 | 3.08916 | 4827 ft | 290 kts | 147° |
| 2026-04-21 13:59 | 43.52091 | 3.10454 | 4569 ft | 285 kts | 147° |
| 2026-04-21 13:59 | 43.50456 | 3.11967 | 4329 ft | 281 kts | 146° |
| 2026-04-21 13:59 | 43.48858 | 3.13387 | 4198 ft | 273 kts | 154° |
| 2026-04-21 13:59 | 43.47060 | 3.13978 | 4014 ft | 264 kts | 183° |
| 2026-04-21 14:00 | 43.45268 | 3.13704 | 3891 ft | 255 kts | 188° |
| 2026-04-21 14:00 | 43.43534 | 3.13403 | 3770 ft | 247 kts | 188° |
| 2026-04-21 14:00 | 43.41857 | 3.13101 | 3637 ft | 240 kts | 188° |
| 2026-04-21 14:00 | 43.40230 | 3.12801 | 3523 ft | 231 kts | 188° |
| 2026-04-21 14:01 | 43.38664 | 3.12508 | 3417 ft | 224 kts | 188° |
| 2026-04-21 14:01 | 43.37143 | 3.12220 | 3259 ft | 218 kts | 188° |
| 2026-04-21 14:01 | 43.35656 | 3.12075 | 3065 ft | 212 kts | 170° |
| 2026-04-21 14:01 | 43.34368 | 3.12903 | 2807 ft | 208 kts | 135° |
| 2026-04-21 14:02 | 43.33790 | 3.13971 | 2617 ft | 207 kts | 114° |
| 2026-04-21 14:02 | 43.33442 | 3.16495 | 2360 ft | 200 kts | 96° |
| 2026-04-21 14:02 | 43.33321 | 3.18336 | 2250 ft | 188 kts | 95° |
| 2026-04-21 14:03 | 43.33109 | 3.21777 | 1880 ft | 176 kts | 96° |
| 2026-04-21 14:03 | 43.33010 | 3.23446 | 1624 ft | 175 kts | 96° |
| 2026-04-21 14:03 | 43.32914 | 3.25108 | 1384 ft | 174 kts | 97° |
| 2026-04-21 14:03 | 43.32827 | 3.26671 | 1165 ft | 158 kts | 96° |
| 2026-04-21 14:04 | 43.32748 | 3.28097 | 999 ft | 145 kts | 97° |
| 2026-04-21 14:04 | 43.32673 | 3.29477 | 814 ft | 145 kts | 97° |
| 2026-04-21 14:04 | 43.32594 | 3.30873 | 600 ft | 147 kts | 99° |
| 2026-04-21 14:04 | 43.32523 | 3.32268 | 383 ft | 144 kts | 98° |
| 2026-04-21 14:05 | 43.32439 | 3.33617 | 176 ft | 141 kts | 98° |
| 2026-04-21 14:05 | 43.32368 | 3.34920 | 62 ft | 125 kts | 91° |
| 2026-04-21 14:05 | 43.32330 | 3.35617 | 55 ft | 52 kts | 95° |
| 2026-04-21 14:05 | 43.32306 | 3.35999 | 53 ft | 34 kts | 94° |
| 2026-04-21 14:06 | 43.32291 | 3.36134 | 51 ft | 5 kts | 77° |
| 2026-04-21 14:06 | 43.32297 | 3.36142 | 52 ft | 0 kts | 20° |
| 2026-04-21 14:06 | 43.32301 | 3.36135 | 52 ft | 3 kts | 305° |
| 2026-04-21 14:06 | 43.32303 | 3.36052 | 52 ft | 14 kts | 268° |
| 2026-04-21 14:07 | 43.32312 | 3.35920 | 55 ft | 14 kts | 275° |
| 2026-04-21 14:07 | 43.32319 | 3.35783 | 55 ft | 16 kts | 273° |
| 2026-04-21 14:07 | 43.32326 | 3.35618 | 55 ft | 19 kts | 273° |
| 2026-04-21 14:07 | 43.32337 | 3.35440 | 52 ft | 18 kts | 275° |
| 2026-04-21 14:08 | 43.32335 | 3.35365 | 55 ft | 9 kts | 246° |
| 2026-04-21 14:08 | 43.32267 | 3.35328 | 62 ft | 9 kts | 183° |
| 2026-04-21 14:08 | 43.32204 | 3.35328 | 61 ft | 6 kts | 180° |
| 2026-04-21 14:08 | 43.32182 | 3.35307 | 52 ft | 3 kts | 252° |
| 2026-04-21 14:09 | 43.32175 | 3.35286 | 57 ft | 2 kts | 224° |
| 2026-04-21 14:09 | 43.32157 | 3.35289 | 57 ft | 4 kts | 139° |
| 2026-04-21 14:09 | 43.32144 | 3.35313 | 60 ft | 0 kts | 126° |